createdAt,value
2022-11-23T00:01:50.484Z,0.70
2022-11-23T00:04:23.396Z,0.80
2022-11-23T00:06:50.663Z,1.10
2022-11-23T00:09:17.602Z,0.47
2022-11-23T00:11:48.047Z,0.82
2022-11-23T00:14:24.592Z,0.30
2022-11-23T00:16:55.463Z,0.40
2022-11-23T00:19:29.881Z,0.47
2022-11-23T00:21:57.013Z,0.40
2022-11-23T00:24:24.107Z,0.47
2022-11-23T00:26:51.449Z,0.40
2022-11-23T00:29:18.620Z,0.35
2022-11-23T00:32:07.063Z,0.85
2022-11-23T00:37:22.557Z,0.22
2022-11-23T00:40:16.761Z,0.35
2022-11-23T00:42:44.573Z,0.68
2022-11-23T00:45:12.133Z,0.65
2022-11-23T00:47:40.132Z,0.52
2022-11-23T00:50:18.472Z,0.40
2022-11-23T00:52:45.850Z,0.55
2022-11-23T00:55:13.175Z,0.95
2022-11-23T00:57:40.129Z,0.50
2022-11-23T01:00:08.263Z,0.30
2022-11-23T01:02:36.349Z,0.55
2022-11-23T01:05:04.160Z,0.60
2022-11-23T01:07:31.229Z,0.20
2022-11-23T01:09:58.271Z,0.60
2022-11-23T01:12:25.175Z,0.30
2022-11-23T01:14:54.623Z,0.50
2022-11-23T01:17:21.567Z,0.40
2022-11-23T01:22:32.597Z,0.60
2022-11-23T01:25:00.466Z,0.57
2022-11-23T01:30:01.415Z,0.50
2022-11-23T01:32:29.418Z,0.60
2022-11-23T01:34:56.630Z,0.30
2022-11-23T01:37:23.760Z,0.60
2022-11-23T01:39:50.913Z,0.52
2022-11-23T01:42:18.185Z,0.80
2022-11-23T01:44:45.601Z,0.47
2022-11-23T01:47:12.938Z,0.50
2022-11-23T01:49:43.746Z,0.50
2022-11-23T01:52:17.094Z,0.60
2022-11-23T01:54:57.189Z,0.50
2022-11-23T01:57:40.528Z,0.82
2022-11-23T02:00:17.803Z,0.50
2022-11-23T02:03:06.609Z,0.65
2022-11-23T02:05:42.836Z,0.85
2022-11-23T02:08:11.830Z,0.95
2022-11-23T02:10:39.025Z,0.70
2022-11-23T02:13:09.130Z,1.05
2022-11-23T02:15:37.231Z,0.63
2022-11-23T02:18:10.726Z,0.55
2022-11-23T02:20:37.798Z,0.47
2022-11-23T02:23:08.868Z,1.30
2022-11-23T02:25:47.717Z,0.60
2022-11-23T02:28:24.177Z,0.40
2022-11-23T02:31:02.158Z,0.52
2022-11-23T02:33:30.368Z,0.20
2022-11-23T02:36:00.689Z,0.45
2022-11-23T02:38:34.143Z,0.75
2022-11-23T02:41:01.436Z,0.35
2022-11-23T02:43:28.577Z,0.70
2022-11-23T02:46:04.052Z,0.70
2022-11-23T02:48:34.128Z,1.05
2022-11-23T02:51:01.945Z,0.60
2022-11-23T02:55:56.601Z,1.23
2022-11-23T02:58:23.651Z,0.85
2022-11-23T03:00:51.011Z,1.13
2022-11-23T03:03:18.263Z,1.58
2022-11-23T03:05:45.599Z,1.10
2022-11-23T03:08:12.989Z,0.80
2022-11-23T03:10:40.118Z,1.33
2022-11-23T03:13:07.322Z,2.38
2022-11-23T03:15:34.352Z,1.52
2022-11-23T03:18:04.891Z,0.77
2022-11-23T03:20:34.752Z,1.48
2022-11-23T03:23:01.941Z,1.60
2022-11-23T03:25:29.219Z,1.45
2022-11-23T03:27:56.469Z,1.08
2022-11-23T03:30:30.028Z,1.50
2022-11-23T03:32:57.292Z,1.65
2022-11-23T03:35:28.951Z,1.10
2022-11-23T03:38:03.515Z,1.42
2022-11-23T03:40:30.708Z,1.48
2022-11-23T03:43:00.057Z,1.67
2022-11-23T03:45:44.300Z,1.40
2022-11-23T03:48:20.520Z,2.03
2022-11-23T03:50:48.555Z,3.20
2022-11-23T03:55:42.288Z,1.75
2022-11-23T03:58:11.946Z,1.35
2022-11-23T04:00:39.118Z,1.98
2022-11-23T04:03:08.891Z,1.88
2022-11-23T04:05:36.244Z,2.65
2022-11-23T04:08:03.325Z,1.38
2022-11-23T04:10:30.413Z,2.10
2022-11-23T04:13:01.018Z,1.80
2022-11-23T04:15:31.541Z,2.85
2022-11-23T04:17:59.284Z,1.15
2022-11-23T04:20:29.467Z,1.42
2022-11-23T04:22:58.875Z,1.85
2022-11-23T04:25:26.400Z,1.70
2022-11-23T04:27:58.971Z,1.50
2022-11-23T04:30:35.111Z,2.22
2022-11-23T04:33:05.274Z,2.05
2022-11-23T04:35:41.802Z,1.50
2022-11-23T04:38:14.328Z,2.05
2022-11-23T04:40:47.160Z,2.30
2022-11-23T04:43:19.346Z,1.33
2022-11-23T04:45:46.773Z,2.50
2022-11-23T04:48:14.024Z,0.82
2022-11-23T04:50:46.595Z,1.95
2022-11-23T04:53:14.398Z,1.30
2022-11-23T04:55:43.178Z,1.35
2022-11-23T04:58:10.281Z,1.10
2022-11-23T05:00:37.312Z,2.03
2022-11-23T05:03:04.444Z,0.80
2022-11-23T05:05:31.604Z,0.98
2022-11-23T05:07:59.482Z,0.85
2022-11-23T05:10:26.487Z,0.60
2022-11-23T05:12:53.785Z,1.10
2022-11-23T05:15:21.020Z,1.23
2022-11-23T05:17:48.018Z,0.93
2022-11-23T05:20:15.499Z,1.20
2022-11-23T05:22:42.480Z,1.10
2022-11-23T05:25:09.801Z,1.00
2022-11-23T05:27:37.140Z,1.08
2022-11-23T05:30:04.736Z,1.25
2022-11-23T05:32:31.810Z,0.98
2022-11-23T05:34:58.834Z,1.17
2022-11-23T05:37:25.754Z,0.80
2022-11-23T05:39:52.627Z,1.35
2022-11-23T05:42:19.490Z,1.40
2022-11-23T05:44:46.438Z,0.95
2022-11-23T05:47:13.383Z,1.50
2022-11-23T05:49:40.445Z,1.90
2022-11-23T05:52:07.351Z,1.83
2022-11-23T05:54:34.670Z,1.23
2022-11-23T05:57:01.714Z,1.92
2022-11-23T05:59:28.628Z,1.53
2022-11-23T06:01:55.512Z,1.65
2022-11-23T06:04:22.368Z,2.30
2022-11-23T06:06:49.428Z,1.73
2022-11-23T06:09:16.341Z,2.13
2022-11-23T06:11:44.953Z,2.25
2022-11-23T06:14:14.391Z,1.63
2022-11-23T06:16:41.577Z,2.15
2022-11-23T06:19:08.619Z,1.98
2022-11-23T06:21:35.583Z,1.40
2022-11-23T06:24:02.573Z,1.93
2022-11-23T06:26:29.473Z,1.97
2022-11-23T06:28:56.507Z,1.27
2022-11-23T06:31:23.447Z,2.07
2022-11-23T06:33:52.346Z,1.70
2022-11-23T06:36:20.240Z,2.17
2022-11-23T06:38:47.374Z,2.13
2022-11-23T06:41:14.448Z,2.22
2022-11-23T06:43:41.401Z,1.90
2022-11-23T06:46:08.462Z,1.17
2022-11-23T06:48:35.448Z,1.85
2022-11-23T06:51:02.441Z,1.90
2022-11-23T06:53:30.332Z,2.50
2022-11-23T06:58:28.254Z,1.27
2022-11-23T07:00:55.532Z,1.73
2022-11-23T07:03:24.819Z,2.63
2022-11-23T07:05:51.897Z,1.98
2022-11-23T07:08:18.852Z,2.10
2022-11-23T07:10:46.353Z,1.40
2022-11-23T07:13:13.474Z,2.22
2022-11-23T07:15:41.864Z,1.65
2022-11-23T07:18:11.887Z,1.38
2022-11-23T07:20:39.152Z,3.05
2022-11-23T07:23:08.173Z,1.63
2022-11-23T07:25:36.948Z,1.67
2022-11-23T07:28:05.503Z,1.95
2022-11-23T07:30:33.844Z,2.05
2022-11-23T07:33:09.178Z,1.45
2022-11-23T07:35:37.704Z,1.70
2022-11-23T07:38:06.387Z,1.23
2022-11-23T07:40:33.275Z,1.55
2022-11-23T07:43:01.986Z,1.40
2022-11-23T07:45:29.726Z,1.83
2022-11-23T07:48:04.814Z,1.65
2022-11-23T07:50:31.968Z,1.48
2022-11-23T07:52:59.342Z,2.45
2022-11-23T07:55:26.531Z,1.85
2022-11-23T07:57:54.605Z,2.55
2022-11-23T08:00:23.329Z,1.70
2022-11-23T08:03:19.521Z,0.95
2022-11-23T08:05:37.249Z,1.15
2022-11-23T08:08:04.322Z,2.27
2022-11-23T08:10:32.082Z,2.13
2022-11-23T08:13:01.851Z,1.67
2022-11-23T08:15:29.054Z,1.80
2022-11-23T08:17:57.434Z,1.45
2022-11-23T08:20:25.433Z,1.00
2022-11-23T08:22:53.086Z,1.05
2022-11-23T08:25:20.032Z,0.80
2022-11-23T08:27:47.107Z,1.27
2022-11-23T08:30:14.824Z,1.05
2022-11-23T08:32:41.708Z,1.88
2022-11-23T08:35:08.632Z,1.40
2022-11-23T08:37:35.603Z,1.50
2022-11-23T08:40:02.561Z,1.10
2022-11-23T08:42:29.653Z,1.00
2022-11-23T08:44:56.656Z,1.05
2022-11-23T08:47:23.592Z,1.13
2022-11-23T08:49:50.567Z,1.48
2022-11-23T08:52:17.432Z,0.67
2022-11-23T08:54:44.449Z,0.88
2022-11-23T08:57:11.471Z,0.70
2022-11-23T08:59:38.476Z,1.33
2022-11-23T09:02:05.465Z,0.93
2022-11-23T09:04:33.418Z,0.63
2022-11-23T09:07:03.112Z,0.93
2022-11-23T09:09:33.029Z,1.15
2022-11-23T09:12:03.068Z,0.95
2022-11-23T09:14:30.554Z,1.33
2022-11-23T09:16:57.893Z,2.00
2022-11-23T09:19:24.977Z,1.00
2022-11-23T09:21:52.218Z,1.70
2022-11-23T09:24:19.691Z,3.15
2022-11-23T09:26:48.888Z,2.05
2022-11-23T09:29:18.238Z,2.42
2022-11-23T09:31:45.552Z,2.78
2022-11-23T09:34:14.269Z,1.88
2022-11-23T09:36:41.415Z,1.20
2022-11-23T09:39:08.813Z,5.28
2022-11-23T09:42:14.451Z,2.15
2022-11-23T09:44:59.724Z,1.65
2022-11-23T09:47:38.847Z,1.52
2022-11-23T09:50:09.390Z,2.20
2022-11-23T09:52:40.523Z,2.20
2022-11-23T09:55:51.630Z,1.05
2022-11-23T09:58:22.199Z,1.80
2022-11-23T10:00:56.111Z,1.88
2022-11-23T10:03:23.373Z,1.27
2022-11-23T10:06:05.826Z,1.48
2022-11-23T10:09:04.653Z,0.85
2022-11-23T10:11:50.150Z,0.93
2022-11-23T10:14:52.046Z,2.47
2022-11-23T10:17:41.757Z,1.00
2022-11-23T10:20:30.349Z,0.50
2022-11-23T10:23:02.466Z,1.20
2022-11-23T10:25:39.086Z,1.10
2022-11-23T10:28:19.481Z,1.95
2022-11-23T10:31:08.081Z,0.88
2022-11-23T10:33:43.054Z,1.55
2022-11-23T10:36:11.598Z,1.70
2022-11-23T10:38:38.597Z,1.98
2022-11-23T10:41:13.826Z,2.38
2022-11-23T10:44:09.937Z,2.60
2022-11-23T10:46:37.804Z,1.55
2022-11-23T10:51:49.891Z,1.52
2022-11-23T10:54:21.846Z,2.10
2022-11-23T10:56:50.797Z,2.03
2022-11-23T10:59:38.950Z,2.83
2022-11-23T11:02:15.907Z,2.17
2022-11-23T11:04:43.803Z,2.30
2022-11-23T11:09:40.456Z,1.98
2022-11-23T11:12:19.235Z,1.58
2022-11-23T11:15:10.735Z,1.65
2022-11-23T11:17:39.874Z,0.68
2022-11-23T11:20:28.259Z,1.42
2022-11-23T11:23:03.618Z,0.77
2022-11-23T11:25:37.326Z,1.65
2022-11-23T11:28:25.067Z,1.30
2022-11-23T11:31:13.763Z,1.17
2022-11-23T11:33:53.989Z,0.90
2022-11-23T11:36:22.939Z,1.42
2022-11-23T11:39:17.105Z,1.17
2022-11-23T11:41:44.455Z,1.40
2022-11-23T11:44:21.338Z,1.08
2022-11-23T11:46:57.982Z,0.75
2022-11-23T11:49:33.528Z,1.10
2022-11-23T11:52:09.347Z,1.20
2022-11-23T11:54:47.350Z,2.03
2022-11-23T11:57:22.206Z,0.73
2022-11-23T11:59:53.452Z,0.82
2022-11-23T12:02:43.446Z,0.70
2022-11-23T12:05:27.341Z,1.67
2022-11-23T12:08:09.134Z,0.88
2022-11-23T12:10:53.674Z,1.33
2022-11-23T12:13:24.986Z,1.30
2022-11-23T12:16:05.357Z,0.38
2022-11-23T12:18:46.597Z,0.55
2022-11-23T12:21:32.326Z,0.80
2022-11-23T12:24:17.454Z,0.93
2022-11-23T12:27:02.165Z,0.30
2022-11-23T12:30:12.420Z,0.60
2022-11-23T12:32:39.391Z,0.45
2022-11-23T12:35:14.267Z,0.70
2022-11-23T12:37:41.190Z,0.70
2022-11-23T12:40:15.633Z,0.40
2022-11-23T12:42:46.922Z,0.10
2022-11-23T12:45:18.993Z,0.25
2022-11-23T12:48:11.252Z,0.15
2022-11-23T12:50:55.553Z,0.10
2022-11-23T12:53:35.245Z,0.22
2022-11-23T12:56:14.463Z,0.00
2022-11-23T12:58:44.295Z,0.30
2022-11-23T13:01:15.173Z,0.45
2022-11-23T13:03:57.169Z,0.40
2022-11-23T13:06:33.165Z,0.17
2022-11-23T13:09:41.853Z,0.30
2022-11-23T13:12:34.212Z,0.20
2022-11-23T13:15:47.281Z,0.30
2022-11-23T13:18:33.314Z,0.20
2022-11-23T13:21:15.324Z,0.82
2022-11-23T13:23:42.620Z,0.40
2022-11-23T13:26:17.386Z,0.40
2022-11-23T13:28:46.218Z,0.10
2022-11-23T13:31:16.251Z,0.32
2022-11-23T13:33:46.183Z,0.47
2022-11-23T13:37:11.091Z,0.20
2022-11-23T13:39:49.745Z,0.55
2022-11-23T13:42:17.710Z,0.70
2022-11-23T13:44:44.894Z,0.35
2022-11-23T13:47:17.666Z,0.40
2022-11-23T13:49:52.958Z,0.25
2022-11-23T13:52:22.878Z,0.45
2022-11-23T13:55:11.324Z,0.28
2022-11-23T13:57:46.818Z,0.50
2022-11-23T14:00:44.930Z,0.47
2022-11-23T14:03:47.647Z,0.10
2022-11-23T14:06:28.898Z,0.68
2022-11-23T14:09:16.357Z,0.15
2022-11-23T14:11:51.694Z,0.30
2022-11-23T14:14:29.347Z,0.30
2022-11-23T14:19:51.419Z,0.43
2022-11-23T14:22:21.965Z,0.30
2022-11-23T14:25:04.068Z,0.32
2022-11-23T14:27:59.869Z,1.17
2022-11-23T14:30:48.158Z,2.75
2022-11-23T14:33:34.012Z,3.17
2022-11-23T14:36:15.534Z,2.60
2022-11-23T14:39:26.709Z,1.88
2022-11-23T14:41:59.425Z,0.93
2022-11-23T14:44:31.000Z,0.90
2022-11-23T14:47:05.287Z,0.43
2022-11-23T14:49:32.804Z,1.17
2022-11-23T14:52:03.662Z,1.27
2022-11-23T14:54:32.584Z,3.00
2022-11-23T14:57:04.989Z,2.42
2022-11-23T14:59:38.251Z,1.25
2022-11-23T15:02:16.777Z,7.72
2022-11-23T15:05:08.751Z,4.75
2022-11-23T15:07:45.532Z,1.70
2022-11-23T15:10:43.121Z,1.63
2022-11-23T15:15:57.824Z,1.38
2022-11-23T15:18:34.872Z,1.02
2022-11-23T15:21:10.189Z,0.60
2022-11-23T15:23:43.420Z,1.10
2022-11-23T15:26:34.681Z,1.15
2022-11-23T15:29:19.157Z,1.70
2022-11-23T15:32:06.829Z,1.83
2022-11-23T15:34:33.426Z,5.22
2022-11-23T15:37:01.558Z,7.13
2022-11-23T15:39:29.040Z,4.88
2022-11-23T15:41:58.303Z,5.05
2022-11-23T15:47:30.610Z,2.72
2022-11-23T15:50:02.472Z,2.45
2022-11-23T15:52:38.967Z,2.83
2022-11-23T15:55:13.300Z,1.42
2022-11-23T15:57:41.887Z,1.50
2022-11-23T16:00:23.997Z,2.63
2022-11-23T16:02:51.766Z,3.33
2022-11-23T16:05:24.447Z,3.95
2022-11-23T16:07:57.577Z,2.72
2022-11-23T16:10:31.121Z,3.20
2022-11-23T16:13:23.670Z,1.88
2022-11-23T16:16:00.724Z,2.03
2022-11-23T16:18:28.554Z,2.07
2022-11-23T16:21:03.213Z,2.17
2022-11-23T16:24:24.268Z,4.85
2022-11-23T16:31:15.730Z,2.97
2022-11-23T16:33:57.319Z,4.00
2022-11-23T16:36:28.310Z,2.40
2022-11-23T16:39:05.974Z,3.75
2022-11-23T16:41:36.544Z,3.22
2022-11-23T16:44:04.378Z,3.63
2022-11-23T16:46:43.447Z,3.00
2022-11-23T16:49:23.204Z,2.22
2022-11-23T16:52:06.351Z,2.72
2022-11-23T16:54:37.828Z,5.53
2022-11-23T16:57:06.411Z,2.97
2022-11-23T17:00:07.134Z,1.75
2022-11-23T17:02:25.247Z,2.15
2022-11-23T17:07:50.578Z,3.58
2022-11-23T17:10:22.329Z,2.28
2022-11-23T17:13:03.167Z,3.50
2022-11-23T17:15:31.484Z,6.38
2022-11-23T17:17:58.892Z,4.72
2022-11-23T17:20:26.278Z,3.25
2022-11-23T17:22:57.699Z,3.20
2022-11-23T17:25:36.510Z,3.35
2022-11-23T17:28:14.163Z,2.47
2022-11-23T17:30:42.184Z,2.58
2022-11-23T17:33:15.594Z,3.55
2022-11-23T17:35:43.542Z,3.15
2022-11-23T17:40:46.236Z,2.28
2022-11-23T17:45:49.741Z,2.47
2022-11-23T17:48:31.473Z,2.35
2022-11-23T17:51:04.685Z,2.45
2022-11-23T17:53:32.622Z,2.80
2022-11-23T17:56:17.202Z,2.67
2022-11-23T17:58:45.131Z,2.58
2022-11-23T18:01:31.703Z,2.80
2022-11-23T18:04:25.034Z,3.95
2022-11-23T18:06:54.468Z,5.03
2022-11-23T18:09:55.250Z,5.47
2022-11-23T18:12:25.319Z,3.55
2022-11-23T18:14:52.920Z,4.70
2022-11-23T18:17:24.491Z,4.05
2022-11-23T18:19:55.264Z,2.65
2022-11-23T18:22:22.769Z,2.22
2022-11-23T18:24:53.648Z,3.70
2022-11-23T18:33:00.037Z,3.42
2022-11-23T18:35:27.848Z,2.97
2022-11-23T18:37:55.553Z,3.05
2022-11-23T18:40:23.465Z,4.13
2022-11-23T18:45:17.731Z,2.97
2022-11-23T18:47:49.931Z,3.80
2022-11-23T18:50:17.544Z,3.97
2022-11-23T18:52:44.969Z,3.95
2022-11-23T18:55:12.210Z,4.18
2022-11-23T18:57:39.271Z,3.80
2022-11-23T19:00:08.220Z,3.87
2022-11-23T19:02:39.260Z,4.07
2022-11-23T19:05:09.738Z,3.92
2022-11-23T19:07:36.975Z,2.67
2022-11-23T19:10:11.458Z,3.72
2022-11-23T19:12:38.534Z,2.72
2022-11-23T19:15:07.044Z,2.73
2022-11-23T19:17:34.994Z,3.22
2022-11-23T19:22:47.403Z,2.47
2022-11-23T19:25:18.351Z,2.97
2022-11-23T19:27:49.350Z,2.13
2022-11-23T19:30:17.463Z,2.55
2022-11-23T19:32:47.774Z,2.65
2022-11-23T19:35:15.351Z,3.22
2022-11-23T19:37:50.157Z,2.30
2022-11-23T19:40:20.834Z,3.58
2022-11-23T19:42:48.252Z,3.50
2022-11-23T19:48:02.242Z,3.83
2022-11-23T19:50:36.145Z,5.05
2022-11-23T19:53:12.354Z,2.63
2022-11-23T19:55:43.235Z,3.33
2022-11-23T19:58:10.522Z,2.60
2022-11-23T20:00:46.121Z,2.80
2022-11-23T20:03:40.480Z,2.17
2022-11-23T20:06:21.522Z,2.85
2022-11-23T20:08:58.074Z,2.80
2022-11-23T20:11:29.681Z,2.97
2022-11-23T20:13:57.862Z,2.22
2022-11-23T20:16:27.242Z,2.10
2022-11-23T20:19:07.200Z,2.08
2022-11-23T20:21:43.853Z,1.83
2022-11-23T20:24:32.834Z,2.75
2022-11-23T20:27:09.041Z,3.10
2022-11-23T20:29:45.714Z,2.90
2022-11-23T20:32:13.242Z,2.50
2022-11-23T20:34:43.892Z,2.15
2022-11-23T20:37:14.466Z,2.67
2022-11-23T20:39:55.418Z,3.42
2022-11-23T20:42:33.991Z,2.60
2022-11-23T20:45:04.568Z,2.30
2022-11-23T20:47:44.448Z,3.40
2022-11-23T20:50:12.186Z,2.10
2022-11-23T20:52:39.872Z,3.22
2022-11-23T20:55:11.176Z,2.20
2022-11-23T20:57:41.391Z,2.42
2022-11-23T21:00:12.379Z,2.72
2022-11-23T21:02:42.893Z,3.33
2022-11-23T21:05:21.410Z,2.67
2022-11-23T21:07:57.979Z,3.30
2022-11-23T21:10:47.259Z,2.25
2022-11-23T21:13:49.530Z,1.67
2022-11-23T21:16:53.600Z,2.08
2022-11-23T21:19:50.708Z,2.85
2022-11-23T21:22:19.186Z,2.85
2022-11-23T21:24:55.506Z,2.10
2022-11-23T21:27:50.230Z,2.25
2022-11-23T21:30:17.650Z,2.67
2022-11-23T21:32:49.516Z,2.40
2022-11-23T21:35:31.612Z,2.88
2022-11-23T21:37:59.309Z,3.60
2022-11-23T21:40:33.251Z,2.97
2022-11-23T21:43:00.715Z,2.80
2022-11-23T21:45:46.788Z,2.83
2022-11-23T21:48:20.455Z,3.05
2022-11-23T21:50:48.800Z,2.60
2022-11-23T21:53:16.025Z,2.20
2022-11-23T21:56:31.384Z,2.35
2022-11-23T21:59:01.608Z,1.65
2022-11-23T22:01:43.018Z,1.65
2022-11-23T22:04:22.368Z,2.25
2022-11-23T22:07:02.715Z,2.47
2022-11-23T22:09:32.920Z,2.40
2022-11-23T22:12:59.730Z,2.10
2022-11-23T22:15:00.911Z,2.22
2022-11-23T22:17:31.140Z,2.70
2022-11-23T22:20:10.821Z,1.63
2022-11-23T22:22:38.012Z,2.70
2022-11-23T22:25:08.082Z,3.65
2022-11-23T22:27:36.777Z,1.95
2022-11-23T22:30:04.249Z,2.80
2022-11-23T22:32:31.947Z,3.22
2022-11-23T22:34:59.005Z,3.03
2022-11-23T22:37:26.591Z,3.17
2022-11-23T22:39:53.684Z,1.83
2022-11-23T22:42:20.723Z,2.10
2022-11-23T22:44:47.990Z,2.20
2022-11-23T22:47:19.779Z,1.33
2022-11-23T22:49:47.262Z,2.17
2022-11-23T22:52:14.828Z,1.90
2022-11-23T22:54:42.454Z,3.15
2022-11-23T22:57:09.476Z,2.63
2022-11-23T22:59:36.388Z,2.42
2022-11-23T23:02:03.551Z,2.78
2022-11-23T23:04:30.863Z,2.22
2022-11-23T23:07:03.797Z,2.70
2022-11-23T23:09:33.770Z,2.42
2022-11-23T23:12:01.187Z,1.50
2022-11-23T23:14:28.798Z,1.67
2022-11-23T23:16:56.112Z,1.90
2022-11-23T23:19:23.594Z,1.98
2022-11-23T23:21:50.640Z,2.17
2022-11-23T23:24:17.863Z,2.33
2022-11-23T23:26:45.071Z,1.17
2022-11-23T23:29:12.238Z,2.10
2022-11-23T23:31:39.366Z,2.10
2022-11-23T23:34:06.777Z,1.67
2022-11-23T23:36:36.733Z,1.52
2022-11-23T23:39:06.981Z,1.38
2022-11-23T23:41:37.107Z,1.15
2022-11-23T23:44:19.392Z,1.83
2022-11-23T23:46:49.095Z,1.25
2022-11-23T23:49:16.283Z,1.83
2022-11-23T23:51:46.445Z,0.98
2022-11-23T23:54:15.887Z,1.95
2022-11-23T23:56:42.888Z,1.70
2022-11-23T23:59:10.168Z,2.13
